Página principal
METAR-TAF:

METAR-TAF

Aeroportos :

Aeroporto Internacional de Viena

Viena, Áustria

latitude: 48-07N, longitude: 016-34E, altura: 183 m

Observação actual do tempo

O boletim foi feito há 28 minutos, às 10:50 UTC
Vento 3 kt com direcção variável
Temperatura 30°C
Humidade 38%
Pressão 1020 hPa
Visibilidade 10 km ou mais
sem nuvens abaixo de 1500 metros e sem cumulonimbus

METAR: LOWW 191050Z VRB03KT CAVOK 30/14 Q1020 NOSIG

Hora: 13:18 (11:18 UTC)

Previsão

O boletim foi feito há 3 horas e 3 minutos, às 08:15 UTC
Previsão válida de 19 às 09 UTC a 20 às 15 UTC
Vento 2 kt com direcção variável
Visibilidade 10 km ou mais
sem nuvens abaixo de 1500 metros e sem cumulonimbus
Temporariamente
de 20 às 13 UTC a 20 às 15 UTC
Vento 7 kt de sudoeste

TAF: LOWW 190815Z 1909/2015 VRB02KT CAVOK TX34/2014Z TN17/2003Z TEMPO 2013/2015 22007KT

Observações e previsões do tempo de mais de 4000 aeroportos (mensagens METAR e TAF).

As estações disponíveis são os pontos amarelos e vermelhos sobre o mapa.

Mova o rato sobre o mapa para ver o nome da estação.

Depois clique no ponto para visualizar as observações e previsões meteorológicas.

Para alterar o mapa : clique nos botões verdes com uma cruz preta para aumentar o zoom; no botão verde com uma pitada de zoom; ou nas setas verdes para mapas adjacentes.


METAR-TAF: